createdAt,value
2022-10-04T00:03:51.510Z,11.02
2022-10-04T00:09:19.710Z,11.03
2022-10-04T00:14:33.216Z,11.00
2022-10-04T00:19:41.158Z,10.98
2022-10-04T00:25:05.351Z,10.96
2022-10-04T00:30:07.710Z,10.88
2022-10-04T00:35:28.146Z,10.84
2022-10-04T00:40:42.800Z,10.80
2022-10-04T00:45:51.808Z,10.88
2022-10-04T00:51:28.655Z,10.54
2022-10-04T00:56:40.363Z,10.50
2022-10-04T01:01:45.833Z,10.78
2022-10-04T01:06:48.394Z,10.70
2022-10-04T01:12:02.642Z,10.81
2022-10-04T01:17:05.278Z,10.57
2022-10-04T01:22:32.294Z,10.77
2022-10-04T01:27:41.387Z,10.72
2022-10-04T01:32:46.355Z,10.79
2022-10-04T01:37:53.319Z,10.66
2022-10-04T01:43:06.024Z,10.66
2022-10-04T01:48:16.793Z,10.77
2022-10-04T01:53:44.601Z,10.75
2022-10-04T01:58:54.322Z,10.45
2022-10-04T02:04:10.350Z,10.63
2022-10-04T02:09:22.867Z,10.51
2022-10-04T02:14:29.182Z,10.64
2022-10-04T02:19:38.124Z,10.64
2022-10-04T02:24:47.093Z,10.72
2022-10-04T02:29:49.466Z,10.70
2022-10-04T02:34:52.845Z,10.68
2022-10-04T02:40:03.674Z,10.82
2022-10-04T02:45:38.048Z,10.84
2022-10-04T02:50:53.421Z,10.76
2022-10-04T02:55:56.749Z,10.83
2022-10-04T03:01:01.264Z,10.53
2022-10-04T03:06:18.414Z,10.64
2022-10-04T03:11:24.149Z,10.44
2022-10-04T03:16:27.255Z,10.73
2022-10-04T03:21:32.158Z,10.36
2022-10-04T03:26:43.208Z,10.48
2022-10-04T03:31:49.025Z,10.30
2022-10-04T03:36:58.923Z,10.62
2022-10-04T03:42:11.123Z,10.50
2022-10-04T03:47:21.802Z,10.83
2022-10-04T03:52:35.463Z,10.71
2022-10-04T03:57:38.634Z,10.34
2022-10-04T04:02:50.500Z,10.54
2022-10-04T04:08:06.908Z,10.81
2022-10-04T04:13:15.381Z,10.81
2022-10-04T04:18:40.828Z,10.49
2022-10-04T04:24:09.759Z,10.66
2022-10-04T04:29:15.123Z,10.62
2022-10-04T04:35:27.345Z,10.49
2022-10-04T04:40:29.744Z,10.65
2022-10-04T04:45:34.371Z,10.66
2022-10-04T04:50:40.101Z,10.84
2022-10-04T04:56:03.910Z,10.63
2022-10-04T05:01:23.468Z,10.91
2022-10-04T05:06:27.626Z,10.74
2022-10-04T05:11:38.932Z,11.08
2022-10-04T05:16:47.463Z,11.17
2022-10-04T05:21:53.299Z,11.10
2022-10-04T05:27:06.605Z,11.39
2022-10-04T05:32:40.503Z,11.39
2022-10-04T05:37:57.877Z,11.51
2022-10-04T05:43:00.449Z,11.03
2022-10-04T05:48:09.149Z,11.05
2022-10-04T05:53:31.542Z,11.49
2022-10-04T05:59:08.676Z,11.14
2022-10-04T06:04:13.942Z,11.36
2022-10-04T06:09:46.127Z,11.07
2022-10-04T06:15:50.226Z,11.46
2022-10-04T06:21:36.624Z,11.86
2022-10-04T06:26:46.289Z,11.96
2022-10-04T06:32:23.970Z,12.08
2022-10-04T06:37:29.358Z,12.03
2022-10-04T06:42:42.541Z,11.80
2022-10-04T06:47:50.130Z,12.72
2022-10-04T06:53:16.995Z,12.30
2022-10-04T06:58:34.909Z,12.59
2022-10-04T07:03:51.227Z,13.00
2022-10-04T07:08:59.952Z,12.36
2022-10-04T07:14:20.738Z,13.40
2022-10-04T07:19:50.343Z,14.93
2022-10-04T07:24:56.267Z,15.67
2022-10-04T07:30:02.310Z,14.92
2022-10-04T07:35:31.558Z,14.66
2022-10-04T07:40:41.011Z,14.20
2022-10-04T07:45:43.433Z,13.16
2022-10-04T07:51:03.967Z,13.52
2022-10-04T07:56:21.665Z,13.60
2022-10-04T08:01:43.045Z,13.92
2022-10-04T08:07:13.825Z,13.87
2022-10-04T08:12:54.923Z,13.70
2022-10-04T08:18:19.795Z,13.55
2022-10-04T08:23:41.283Z,14.11
2022-10-04T08:29:13.041Z,14.83
2022-10-04T08:34:52.356Z,15.49
2022-10-04T08:40:12.658Z,17.04
2022-10-04T08:45:28.779Z,16.52
2022-10-04T08:50:55.305Z,17.56
2022-10-04T08:56:10.521Z,16.68
2022-10-04T09:01:25.705Z,17.83
2022-10-04T09:06:28.294Z,16.99
2022-10-04T09:11:38.708Z,17.58
2022-10-04T09:17:10.418Z,17.79
2022-10-04T09:22:21.556Z,17.39
2022-10-04T09:27:53.730Z,19.48
2022-10-04T09:33:00.218Z,20.77
2022-10-04T09:38:36.366Z,20.87
2022-10-04T09:44:09.608Z,21.01
2022-10-04T09:49:45.173Z,20.03
2022-10-04T09:55:18.152Z,18.09
2022-10-04T10:00:39.365Z,15.96
2022-10-04T10:06:09.758Z,16.30
2022-10-04T10:11:33.523Z,17.39
2022-10-04T10:16:47.929Z,17.57
2022-10-04T10:22:17.663Z,16.59
2022-10-04T10:27:30.304Z,17.16
2022-10-04T10:32:47.699Z,16.87
2022-10-04T10:38:14.471Z,16.32
2022-10-04T10:43:51.931Z,17.48
2022-10-04T10:49:00.677Z,17.60
2022-10-04T10:54:15.362Z,17.94
2022-10-04T10:59:40.339Z,18.37
2022-10-04T11:05:18.297Z,17.33
2022-10-04T11:10:52.430Z,16.87
2022-10-04T11:16:35.130Z,17.35
2022-10-04T11:22:07.746Z,17.01
2022-10-04T11:27:34.412Z,16.99
2022-10-04T11:33:06.443Z,16.31
2022-10-04T11:38:23.424Z,15.89
2022-10-04T11:43:38.110Z,15.94
2022-10-04T11:48:54.328Z,16.23
2022-10-04T11:54:44.769Z,15.96
2022-10-04T11:59:48.077Z,16.70
2022-10-04T12:05:08.345Z,17.19
2022-10-04T12:10:28.563Z,16.93
2022-10-04T12:16:01.490Z,17.74
2022-10-04T12:21:33.320Z,18.06
2022-10-04T12:27:03.890Z,18.07
2022-10-04T12:32:18.390Z,17.87
2022-10-04T12:37:38.407Z,17.32
2022-10-04T12:42:54.357Z,17.30
2022-10-04T12:48:09.402Z,17.10
2022-10-04T12:53:17.722Z,17.25
2022-10-04T12:58:50.063Z,17.09
2022-10-04T13:04:12.482Z,16.89
2022-10-04T13:09:28.341Z,17.13
2022-10-04T13:14:45.933Z,16.78
2022-10-04T13:20:19.116Z,16.69
2022-10-04T13:25:35.812Z,16.62
2022-10-04T13:30:54.334Z,16.41
2022-10-04T13:36:24.328Z,16.50
2022-10-04T13:41:37.593Z,16.59
2022-10-04T13:47:14.185Z,16.47
2022-10-04T13:53:10.794Z,16.01
2022-10-04T13:58:13.081Z,16.02
2022-10-04T14:03:51.251Z,15.55
2022-10-04T14:09:02.592Z,15.46
2022-10-04T14:14:23.198Z,15.46
2022-10-04T14:19:25.540Z,14.84
2022-10-04T14:24:34.726Z,14.62
2022-10-04T14:35:23.023Z,14.59
2022-10-04T14:40:40.659Z,14.73
2022-10-04T14:46:07.891Z,14.89
2022-10-04T14:51:51.001Z,15.10
2022-10-04T14:57:13.624Z,15.00
2022-10-04T15:02:31.998Z,15.01
2022-10-04T15:07:34.535Z,14.85
2022-10-04T15:13:10.487Z,13.68
2022-10-04T15:18:49.417Z,13.34
2022-10-04T15:24:13.381Z,12.13
2022-10-04T15:29:37.995Z,11.40
2022-10-04T15:34:59.041Z,10.88
2022-10-04T15:40:35.399Z,10.25
2022-10-04T15:46:18.627Z,10.28
2022-10-04T15:51:42.805Z,10.24
2022-10-04T15:57:10.005Z,10.28
2022-10-04T16:02:49.047Z,10.34
2022-10-04T16:08:00.708Z,10.43
2022-10-04T16:13:17.607Z,10.14
2022-10-04T16:18:46.080Z,10.42
2022-10-04T16:24:20.745Z,10.06
2022-10-04T16:29:57.923Z,10.22
2022-10-04T16:35:37.677Z,10.16
2022-10-04T16:40:51.730Z,9.89
2022-10-04T16:46:10.277Z,9.65
2022-10-04T16:51:18.845Z,9.52
2022-10-04T17:02:00.972Z,9.15
2022-10-04T17:07:41.635Z,8.90
2022-10-04T17:13:07.431Z,8.88
2022-10-04T17:18:20.142Z,8.54
2022-10-04T17:23:25.485Z,8.73
2022-10-04T17:28:34.413Z,8.76
2022-10-04T17:33:59.385Z,8.54
2022-10-04T17:39:39.927Z,8.76
2022-10-04T17:45:19.300Z,8.80
2022-10-04T17:51:01.062Z,8.75
2022-10-04T17:56:07.367Z,8.99
2022-10-04T18:01:28.508Z,8.63
2022-10-04T18:06:43.419Z,9.11
2022-10-04T18:11:49.499Z,8.77
2022-10-04T18:17:01.137Z,8.68
2022-10-04T18:22:17.113Z,9.79
2022-10-04T18:27:24.726Z,9.47
2022-10-04T18:32:27.298Z,9.63
2022-10-04T18:37:32.264Z,9.50
2022-10-04T18:42:42.584Z,9.20
2022-10-04T18:47:44.995Z,9.31
2022-10-04T18:52:56.076Z,9.54
2022-10-04T18:58:43.443Z,9.29
2022-10-04T19:04:03.322Z,9.37
2022-10-04T19:09:50.579Z,9.37
2022-10-04T19:15:26.846Z,9.83
2022-10-04T19:20:29.078Z,9.84
2022-10-04T19:26:17.707Z,9.93
2022-10-04T19:31:24.651Z,9.78
2022-10-04T19:36:33.607Z,9.81
2022-10-04T19:42:04.874Z,9.66
2022-10-04T19:47:20.038Z,9.65
2022-10-04T19:52:34.627Z,9.65
2022-10-04T19:57:39.608Z,10.45
2022-10-04T20:02:48.981Z,9.45
2022-10-04T20:08:06.653Z,9.46
2022-10-04T20:13:56.886Z,9.16
2022-10-04T20:19:00.238Z,8.65
2022-10-04T20:24:02.665Z,7.99
2022-10-04T20:29:04.762Z,8.33
2022-10-04T20:34:44.396Z,8.17
2022-10-04T20:39:46.632Z,8.61
2022-10-04T20:44:57.825Z,9.06
2022-10-04T20:50:02.338Z,8.63
2022-10-04T20:55:30.272Z,8.39
2022-10-04T21:00:34.836Z,8.22
2022-10-04T21:05:37.555Z,9.74
2022-10-04T21:10:39.836Z,9.80
2022-10-04T21:15:56.352Z,9.82
2022-10-04T21:20:58.753Z,10.73
2022-10-04T21:26:21.242Z,10.68
2022-10-04T21:31:23.737Z,9.44
2022-10-04T21:36:26.004Z,8.40
2022-10-04T21:41:28.281Z,8.13
2022-10-04T21:46:30.573Z,7.96
2022-10-04T21:51:36.690Z,7.40
2022-10-04T21:56:38.988Z,7.17
2022-10-04T22:01:41.270Z,6.87
